Spring Bluff, Georgia
Current Conditions -  °F | °C
As of 12:53 AM on Saturday 29 Nov 2014 (Local Time) from KSSI Reporting Station
Clear Clear  
Wind Chill: 37°   Ceiling: Unl
Heat Index: 37°   Visibility: 9mi
Dew Point: 34°   Wind: 0mph
Humidity: 89%   Direction: NA
Pressure: 30.32"   Gusts: NA
Location:  31.0438°N, 81.5786°W
Report Text: KSSI 290553Z AUTO 00000KT 9SM CLR 03/01 A3032 RMK AO2 SLP267 T00280011 10056 20028 56009
Loading
Personal Weather Stations






























Interactive Weather Map New forecast layout! Learn more

10-Day Weather Forecast

Advertisements
Track Severe Weather on mobile